createdAt,value
2022-08-03T00:01:28.650Z,101003.94
2022-08-03T00:03:55.802Z,100996.53
2022-08-03T00:06:23.016Z,100990.13
2022-08-03T00:08:50.210Z,100988.97
2022-08-03T00:11:17.350Z,100989.19
2022-08-03T00:13:44.590Z,100997.00
2022-08-03T00:16:11.805Z,100990.72
2022-08-03T00:18:38.980Z,100990.13
2022-08-03T00:21:06.289Z,100990.16
2022-08-03T00:23:51.716Z,100994.22
2022-08-03T00:26:23.604Z,100987.56
2022-08-03T00:28:50.978Z,100995.00
2022-08-03T00:31:24.890Z,100992.63
2022-08-03T00:34:06.934Z,100991.19
2022-08-03T00:36:34.086Z,100996.34
2022-08-03T00:39:01.342Z,100999.09
2022-08-03T00:41:28.471Z,100989.94
2022-08-03T00:43:55.646Z,100997.09
2022-08-03T00:46:22.806Z,100987.19
2022-08-03T00:48:50.182Z,100993.53
2022-08-03T00:51:18.092Z,100990.84
2022-08-03T00:53:46.028Z,100986.97
2022-08-03T00:56:14.462Z,100988.06
2022-08-03T00:58:44.055Z,100976.22
2022-08-03T01:01:12.509Z,100987.78
2022-08-03T01:03:41.727Z,100986.44
2022-08-03T01:06:11.633Z,100984.44
2022-08-03T01:08:52.451Z,100987.38
2022-08-03T01:11:37.209Z,100985.00
2022-08-03T01:14:27.268Z,100988.47
2022-08-03T01:16:59.618Z,100985.25
2022-08-03T01:19:36.455Z,100983.66
2022-08-03T01:22:22.055Z,100979.69
2022-08-03T01:25:07.610Z,100981.97
2022-08-03T01:27:40.640Z,100980.28
2022-08-03T01:30:08.862Z,100976.66
2022-08-03T01:33:01.157Z,100986.91
2022-08-03T01:35:38.346Z,100986.84
2022-08-03T01:38:10.027Z,100981.13
2022-08-03T01:40:37.846Z,100976.34
2022-08-03T01:43:06.385Z,100972.75
2022-08-03T01:45:34.489Z,100962.34
2022-08-03T01:48:02.564Z,100969.66
2022-08-03T01:50:31.229Z,100974.84
2022-08-03T01:52:59.078Z,100963.66
2022-08-03T01:55:29.382Z,100969.28
2022-08-03T01:58:05.247Z,100965.97
2022-08-03T02:00:37.799Z,100965.25
2022-08-03T02:03:06.054Z,100967.63
2022-08-03T02:05:34.091Z,100968.19
2022-08-03T02:08:02.994Z,100956.97
2022-08-03T02:10:34.582Z,100962.03
2022-08-03T02:13:04.397Z,100962.75
2022-08-03T02:15:32.775Z,100968.47
2022-08-03T02:18:01.826Z,100960.91
2022-08-03T02:20:33.013Z,100969.69
2022-08-03T02:23:00.333Z,100964.94
2022-08-03T02:25:28.333Z,100959.06
2022-08-03T02:27:56.549Z,100958.25
2022-08-03T02:30:29.761Z,100959.28
2022-08-03T02:32:57.903Z,100954.50
2022-08-03T02:35:26.356Z,100950.63
2022-08-03T02:38:07.530Z,100951.47
2022-08-03T02:40:35.486Z,100952.38
2022-08-03T02:43:05.312Z,100947.00
2022-08-03T02:45:35.267Z,100948.72
2022-08-03T02:48:04.246Z,100948.44
2022-08-03T02:50:33.424Z,100946.91
2022-08-03T02:53:01.788Z,100947.25
2022-08-03T02:55:29.502Z,100948.38
2022-08-03T02:57:57.393Z,100947.44
2022-08-03T03:00:29.989Z,100948.38
2022-08-03T03:03:00.870Z,100947.63
2022-08-03T03:05:56.235Z,100952.88
2022-08-03T03:08:18.750Z,100950.97
2022-08-03T03:10:48.684Z,100943.06
2022-08-03T03:13:21.129Z,100953.00
2022-08-03T03:15:49.018Z,100949.94
2022-08-03T03:18:22.076Z,100954.69
2022-08-03T03:20:51.735Z,100949.13
2022-08-03T03:23:20.251Z,100951.91
2022-08-03T03:25:47.502Z,100950.00
2022-08-03T03:28:17.423Z,100949.56
2022-08-03T03:30:44.759Z,100945.94
2022-08-03T03:33:20.414Z,100948.63
2022-08-03T03:35:47.789Z,100952.56
2022-08-03T03:38:14.938Z,100954.09
2022-08-03T03:40:42.250Z,100950.47
2022-08-03T03:43:10.862Z,100957.19
2022-08-03T03:45:38.386Z,100954.81
2022-08-03T03:48:05.785Z,100949.72
2022-08-03T03:50:33.394Z,100951.81
2022-08-03T03:53:01.181Z,100952.28
2022-08-03T03:55:28.541Z,100956.63
2022-08-03T03:57:55.758Z,100954.28
2022-08-03T04:00:26.521Z,100953.03
2022-08-03T04:02:56.874Z,100951.41
2022-08-03T04:05:45.892Z,100952.50
2022-08-03T04:08:33.214Z,100954.44
2022-08-03T04:11:19.126Z,100956.84
2022-08-03T04:13:56.967Z,100958.63
2022-08-03T04:16:31.818Z,100966.19
2022-08-03T04:19:04.742Z,100958.72
2022-08-03T04:21:33.335Z,100963.84
2022-08-03T04:24:01.935Z,100959.47
2022-08-03T04:26:31.503Z,100963.41
2022-08-03T04:28:58.968Z,100961.44
2022-08-03T04:31:27.257Z,100965.34
2022-08-03T04:33:56.475Z,100965.34
2022-08-03T04:36:27.745Z,100964.09
2022-08-03T04:39:13.831Z,100969.75
2022-08-03T04:42:07.643Z,100965.56
2022-08-03T04:44:29.410Z,100968.22
2022-08-03T04:46:57.067Z,100967.78
2022-08-03T04:49:24.979Z,100972.88
2022-08-03T04:51:52.581Z,100976.38
2022-08-03T04:54:19.710Z,100981.50
2022-08-03T04:56:46.833Z,100983.44
2022-08-03T04:59:14.026Z,100992.03
2022-08-03T05:01:44.142Z,100988.91
2022-08-03T05:04:11.382Z,100993.69
2022-08-03T05:06:45.212Z,100986.56
2022-08-03T05:09:15.574Z,100988.97
2022-08-03T05:12:03.666Z,100993.22
2022-08-03T05:14:31.028Z,100990.41
2022-08-03T05:16:58.156Z,100996.66
2022-08-03T05:19:25.423Z,100991.94
2022-08-03T05:21:53.104Z,100998.38
2022-08-03T05:24:20.495Z,100997.41
2022-08-03T05:26:47.872Z,100994.13
2022-08-03T05:29:15.193Z,100996.91
2022-08-03T05:31:42.793Z,100998.94
2022-08-03T05:34:10.513Z,100994.91
2022-08-03T05:36:38.015Z,100997.94
2022-08-03T05:39:06.379Z,100991.84
2022-08-03T05:41:36.610Z,100995.31
2022-08-03T05:44:04.887Z,100999.91
2022-08-03T05:46:31.995Z,100989.56
2022-08-03T05:48:59.357Z,100996.63
2022-08-03T05:51:26.568Z,101002.19
2022-08-03T05:53:53.845Z,100994.06
2022-08-03T05:56:25.227Z,100994.44
2022-08-03T05:58:52.938Z,100999.75
2022-08-03T06:01:23.902Z,100998.72
2022-08-03T06:03:52.002Z,100994.81
2022-08-03T06:06:19.345Z,101007.31
2022-08-03T06:08:46.687Z,101005.97
2022-08-03T06:11:16.718Z,101013.44
2022-08-03T06:13:44.109Z,101008.88
2022-08-03T06:16:11.216Z,101011.53
2022-08-03T06:18:38.579Z,101017.34
2022-08-03T06:21:15.291Z,101013.63
2022-08-03T06:23:52.800Z,101022.16
2022-08-03T06:26:22.854Z,101027.44
2022-08-03T06:28:52.690Z,101031.91
2022-08-03T06:31:23.926Z,101032.47
2022-08-03T06:34:33.937Z,101029.31
2022-08-03T06:36:38.767Z,101026.75
2022-08-03T06:39:06.290Z,101032.06
2022-08-03T06:41:37.442Z,101042.03
2022-08-03T06:44:08.731Z,101025.63
2022-08-03T06:46:37.521Z,101029.16
2022-08-03T06:49:07.547Z,101035.59
2022-08-03T06:52:06.107Z,101036.28
2022-08-03T06:54:25.588Z,101040.72
2022-08-03T06:56:52.771Z,101047.91
2022-08-03T07:00:06.026Z,101047.94
2022-08-03T07:02:07.467Z,101051.66
2022-08-03T07:04:34.605Z,101047.84
2022-08-03T07:07:01.756Z,101048.19
2022-08-03T07:09:31.981Z,101054.34
2022-08-03T07:11:59.405Z,101043.09
2022-08-03T07:14:29.625Z,101054.22
2022-08-03T07:16:58.253Z,101055.41
2022-08-03T07:19:26.043Z,101054.53
2022-08-03T07:21:53.536Z,101055.03
2022-08-03T07:24:20.967Z,101057.13
2022-08-03T07:26:48.082Z,101055.19
2022-08-03T07:29:15.682Z,101055.59
2022-08-03T07:31:42.875Z,101060.72
2022-08-03T07:34:10.050Z,101051.34
2022-08-03T07:36:37.363Z,101048.75
2022-08-03T07:39:15.982Z,101050.41
2022-08-03T07:41:45.819Z,101048.44
2022-08-03T07:44:13.313Z,101053.41
2022-08-03T07:46:40.439Z,101049.88
2022-08-03T07:49:07.668Z,101042.75
2022-08-03T07:51:35.079Z,101054.78
2022-08-03T07:54:02.269Z,101059.16
2022-08-03T07:56:30.071Z,101053.06
2022-08-03T07:58:59.776Z,101052.94
2022-08-03T08:01:27.088Z,101052.50
2022-08-03T08:03:54.288Z,101052.31
2022-08-03T08:06:21.960Z,101051.06
2022-08-03T08:08:49.104Z,101052.59
2022-08-03T08:11:16.249Z,101055.88
2022-08-03T08:13:43.380Z,101056.69
2022-08-03T08:16:10.519Z,101051.75
2022-08-03T08:18:37.637Z,101054.00
2022-08-03T08:21:04.831Z,101057.78
2022-08-03T08:23:42.824Z,101051.50
2022-08-03T08:26:11.569Z,101054.03
2022-08-03T08:28:39.018Z,101051.13
2022-08-03T08:31:07.216Z,101050.19
2022-08-03T08:34:03.153Z,101046.88
2022-08-03T08:36:25.562Z,101051.38
2022-08-03T08:38:53.790Z,101039.94
2022-08-03T08:41:20.984Z,101047.75
2022-08-03T08:43:51.435Z,101042.34
2022-08-03T08:46:23.929Z,101050.63
2022-08-03T08:48:52.485Z,101052.66
2022-08-03T08:51:20.668Z,101039.34
2022-08-03T08:53:51.323Z,101049.22
2022-08-03T08:56:19.922Z,101047.81
2022-08-03T08:58:49.107Z,101041.72
2022-08-03T09:01:20.466Z,101041.88
2022-08-03T09:03:47.852Z,101045.47
2022-08-03T09:06:15.362Z,101042.88
2022-08-03T09:08:42.530Z,101045.78
2022-08-03T09:11:12.033Z,101045.47
2022-08-03T09:13:39.592Z,101046.03
2022-08-03T09:16:11.202Z,101050.63
2022-08-03T09:18:38.570Z,101048.53
2022-08-03T09:21:35.996Z,101052.75
2022-08-03T09:24:07.006Z,101035.97
2022-08-03T09:26:38.243Z,101035.59
2022-08-03T09:29:14.549Z,101036.75
2022-08-03T09:31:44.623Z,101029.72
2022-08-03T09:34:13.341Z,101032.50
2022-08-03T09:36:50.453Z,101041.22
2022-08-03T09:39:18.583Z,101033.28
2022-08-03T09:42:03.798Z,101034.16
2022-08-03T09:44:35.830Z,101038.38
2022-08-03T09:47:04.047Z,101030.09
2022-08-03T09:49:31.354Z,101019.91
2022-08-03T09:52:31.296Z,101019.66
2022-08-03T09:54:52.009Z,101020.97
2022-08-03T09:57:25.761Z,101021.09
2022-08-03T10:00:04.541Z,101025.28
2022-08-03T10:02:40.265Z,101019.63
2022-08-03T10:05:08.409Z,101033.13
2022-08-03T10:07:45.900Z,101015.38
2022-08-03T10:10:29.322Z,101018.91
2022-08-03T10:13:00.199Z,101012.44
2022-08-03T10:16:21.971Z,101004.25
2022-08-03T10:18:14.648Z,101004.75
2022-08-03T10:20:53.581Z,100999.84
2022-08-03T10:23:21.561Z,100998.03
2022-08-03T10:25:52.728Z,101004.81
2022-08-03T10:28:21.259Z,101006.00
2022-08-03T10:30:50.305Z,100996.59
2022-08-03T10:33:50.993Z,100998.50
2022-08-03T10:36:07.141Z,100999.94
2022-08-03T10:38:43.371Z,100993.63
2022-08-03T10:41:10.911Z,100988.66
2022-08-03T10:43:45.925Z,100989.91
2022-08-03T10:46:14.162Z,100977.81
2022-08-03T10:48:41.365Z,100986.19
2022-08-03T10:51:08.611Z,100980.44
2022-08-03T10:53:40.510Z,100978.53
2022-08-03T10:56:50.410Z,100969.59
2022-08-03T10:59:27.780Z,100969.84
2022-08-03T11:02:00.394Z,100971.06
2022-08-03T11:04:29.740Z,100973.97
2022-08-03T11:07:15.660Z,100967.56
2022-08-03T11:09:44.127Z,100967.94
2022-08-03T11:12:31.473Z,100966.19
2022-08-03T11:15:06.591Z,100956.94
2022-08-03T11:17:46.117Z,100957.94
2022-08-03T11:20:41.333Z,100961.53
2022-08-03T11:23:08.507Z,100962.38
2022-08-03T11:25:58.637Z,100959.16
2022-08-03T11:28:32.187Z,100951.72
2022-08-03T11:31:39.569Z,100956.47
2022-08-03T11:34:07.321Z,100955.91
2022-08-03T11:36:53.310Z,100950.31
2022-08-03T11:39:20.507Z,100947.69
2022-08-03T11:41:47.653Z,100953.69
2022-08-03T11:44:53.393Z,100949.50
2022-08-03T11:47:21.363Z,100941.66
2022-08-03T11:49:49.903Z,100938.84
2022-08-03T11:52:17.812Z,100944.28
2022-08-03T11:54:45.244Z,100938.13
2022-08-03T11:57:12.408Z,100936.28
2022-08-03T11:59:39.516Z,100930.13
2022-08-03T12:02:11.041Z,100933.47
2022-08-03T12:04:51.302Z,100931.34
2022-08-03T12:07:24.400Z,100927.78
2022-08-03T12:10:06.548Z,100920.84
2022-08-03T12:12:33.792Z,100916.25
2022-08-03T12:15:04.250Z,100925.53
2022-08-03T12:17:40.334Z,100915.56
2022-08-03T12:20:08.540Z,100914.25
2022-08-03T12:22:37.346Z,100909.03
2022-08-03T12:25:05.505Z,100906.34
2022-08-03T12:27:32.639Z,100908.88
2022-08-03T12:30:01.815Z,100907.97
2022-08-03T12:32:29.495Z,100919.44
2022-08-03T12:35:05.965Z,100910.75
2022-08-03T12:37:33.419Z,100905.69
2022-08-03T12:40:09.543Z,100911.00
2022-08-03T12:42:38.982Z,100914.28
2022-08-03T12:45:22.462Z,100909.91
2022-08-03T12:47:59.890Z,100914.78
2022-08-03T12:50:31.960Z,100908.94
2022-08-03T12:53:00.408Z,100910.72
2022-08-03T12:55:57.867Z,100903.50
2022-08-03T12:58:33.554Z,100902.94
2022-08-03T13:01:01.587Z,100915.97
2022-08-03T13:03:42.459Z,100902.44
2022-08-03T13:06:17.135Z,100909.53
2022-08-03T13:08:44.470Z,100903.34
2022-08-03T13:11:22.010Z,100899.53
2022-08-03T13:13:49.751Z,100893.38
2022-08-03T13:16:19.387Z,100901.69
2022-08-03T13:18:47.159Z,100887.13
2022-08-03T13:21:19.262Z,100878.81
2022-08-03T13:23:46.795Z,100886.47
2022-08-03T13:26:13.938Z,100884.63
2022-08-03T13:28:41.198Z,100887.81
2022-08-03T13:31:08.377Z,100886.06
2022-08-03T13:33:35.667Z,100877.94
2022-08-03T13:36:02.796Z,100885.03
2022-08-03T13:38:30.152Z,100882.16
2022-08-03T13:40:58.775Z,100877.69
2022-08-03T13:43:25.954Z,100881.97
2022-08-03T13:45:57.675Z,100875.03
2022-08-03T13:48:37.028Z,100872.06
2022-08-03T13:51:21.652Z,100864.94
2022-08-03T13:53:50.481Z,100871.28
2022-08-03T13:56:17.734Z,100855.78
2022-08-03T13:58:44.880Z,100864.16
2022-08-03T14:01:12.127Z,100861.22
2022-08-03T14:03:39.355Z,100851.09
2022-08-03T14:06:07.534Z,100858.97
2022-08-03T14:08:34.719Z,100851.53
2022-08-03T14:11:01.967Z,100849.91
2022-08-03T14:13:30.254Z,100844.44
2022-08-03T14:15:57.402Z,100833.47
2022-08-03T14:18:28.594Z,100831.91
2022-08-03T14:21:05.532Z,100838.34
2022-08-03T14:23:34.790Z,100836.50
2022-08-03T14:26:01.944Z,100837.78
2022-08-03T14:28:29.067Z,100829.25
2022-08-03T14:30:56.401Z,100827.44
2022-08-03T14:33:23.640Z,100831.81
2022-08-03T14:35:51.391Z,100817.72
2022-08-03T14:38:18.697Z,100824.53
2022-08-03T14:40:46.348Z,100820.44
2022-08-03T14:43:14.104Z,100815.94
2022-08-03T14:45:41.449Z,100812.03
2022-08-03T14:50:32.949Z,100819.34
2022-08-03T14:50:58.723Z,100809.38
2022-08-03T14:53:25.907Z,100803.31
2022-08-03T14:55:53.662Z,100808.19
2022-08-03T14:58:22.023Z,100806.72
2022-08-03T15:00:50.342Z,100805.63
2022-08-03T15:03:20.479Z,100796.78
2022-08-03T15:05:47.795Z,100804.66
2022-08-03T15:08:15.082Z,100793.00
2022-08-03T15:10:44.317Z,100794.91
2022-08-03T15:13:12.951Z,100789.56
2022-08-03T15:15:40.327Z,100784.38
2022-08-03T15:18:08.075Z,100787.22
2022-08-03T15:20:50.875Z,100782.16
2022-08-03T15:23:18.635Z,100776.91
2022-08-03T15:26:29.035Z,100776.59
2022-08-03T15:28:34.016Z,100776.72
2022-08-03T15:31:01.748Z,100773.22
2022-08-03T15:33:29.421Z,100775.13
2022-08-03T15:35:56.879Z,100770.38
2022-08-03T15:38:26.056Z,100772.03
2022-08-03T15:41:01.250Z,100773.22
2022-08-03T15:43:28.395Z,100773.44
2022-08-03T15:46:26.464Z,100768.28
2022-08-03T15:48:42.709Z,100760.72
2022-08-03T15:51:10.095Z,100764.97
2022-08-03T15:53:37.511Z,100756.47
2022-08-03T15:56:09.825Z,100752.09
2022-08-03T15:59:09.649Z,100755.41
2022-08-03T16:01:26.418Z,100755.97
2022-08-03T16:03:53.603Z,100751.69
2022-08-03T16:06:29.757Z,100743.25
2022-08-03T16:09:22.963Z,100746.06
2022-08-03T16:11:54.647Z,100738.25
2022-08-03T16:14:32.247Z,100739.84
2022-08-03T16:17:03.445Z,100738.00
2022-08-03T16:19:30.533Z,100736.63
2022-08-03T16:21:57.705Z,100739.59
2022-08-03T16:24:27.928Z,100736.19
2022-08-03T16:26:55.854Z,100740.38
2022-08-03T16:29:23.790Z,100744.28
2022-08-03T16:31:52.139Z,100740.22
2022-08-03T16:34:20.347Z,100736.50
2022-08-03T16:36:48.495Z,100738.63
2022-08-03T16:39:15.702Z,100732.66
2022-08-03T16:41:53.575Z,100734.06
2022-08-03T16:44:28.846Z,100732.22
2022-08-03T16:46:55.988Z,100734.34
2022-08-03T16:49:55.981Z,100733.94
2022-08-03T16:52:10.245Z,100728.50
2022-08-03T16:54:40.621Z,100727.84
2022-08-03T16:57:08.640Z,100730.00
2022-08-03T16:59:55.321Z,100731.28
2022-08-03T17:02:26.273Z,100727.19
2022-08-03T17:04:54.506Z,100723.25
2022-08-03T17:07:23.011Z,100731.44
2022-08-03T17:09:50.788Z,100730.06
2022-08-03T17:12:25.955Z,100729.47
2022-08-03T17:14:54.506Z,100726.25
2022-08-03T17:17:37.728Z,100728.41
2022-08-03T17:20:20.134Z,100728.56
2022-08-03T17:23:01.495Z,100733.13
2022-08-03T17:26:01.751Z,100730.75
2022-08-03T17:28:49.513Z,100733.28
2022-08-03T17:31:23.554Z,100734.13
2022-08-03T17:34:00.933Z,100732.88
2022-08-03T17:36:47.680Z,100735.56
2022-08-03T17:39:16.667Z,100738.63
2022-08-03T17:41:49.902Z,100742.88
2022-08-03T17:44:33.045Z,100740.97
2022-08-03T17:47:06.511Z,100749.03
2022-08-03T17:52:41.433Z,100746.84
2022-08-03T17:55:56.821Z,100750.50
2022-08-03T17:58:10.470Z,100747.50
2022-08-03T18:00:59.566Z,100750.97
2022-08-03T18:03:57.879Z,100754.13
2022-08-03T18:06:30.443Z,100760.41
2022-08-03T18:11:51.341Z,100759.16
2022-08-03T18:14:28.838Z,100761.78
2022-08-03T18:17:00.605Z,100748.97
2022-08-03T18:20:02.372Z,100757.88
2022-08-03T18:22:19.918Z,100749.91
2022-08-03T18:24:50.293Z,100758.53
2022-08-03T18:27:19.587Z,100762.91
2022-08-03T18:29:48.605Z,100763.81
2022-08-03T18:32:16.868Z,100757.06
2022-08-03T18:34:53.390Z,100767.72
2022-08-03T18:37:25.626Z,100761.63
2022-08-03T18:39:57.854Z,100763.00
2022-08-03T18:42:26.630Z,100765.50
2022-08-03T18:44:56.150Z,100760.31
2022-08-03T18:47:24.179Z,100764.06
2022-08-03T18:49:58.694Z,100770.91
2022-08-03T18:52:28.835Z,100764.44
2022-08-03T18:55:02.839Z,100765.03
2022-08-03T18:57:46.555Z,100765.78
2022-08-03T19:00:23.852Z,100763.88
2022-08-03T19:02:55.276Z,100763.41
2022-08-03T19:05:24.644Z,100775.72
2022-08-03T19:08:16.542Z,100774.94
2022-08-03T19:10:57.514Z,100782.91
2022-08-03T19:13:36.598Z,100777.41
2022-08-03T19:16:04.652Z,100778.59
2022-08-03T19:18:37.494Z,100783.38
2022-08-03T19:21:12.759Z,100793.50
2022-08-03T19:23:47.298Z,100791.72
2022-08-03T19:26:30.361Z,100792.84
2022-08-03T19:28:58.904Z,100796.25
2022-08-03T19:31:30.712Z,100804.34
2022-08-03T19:34:00.332Z,100799.84
2022-08-03T19:36:28.666Z,100801.47
2022-08-03T19:38:56.609Z,100808.59
2022-08-03T19:41:42.215Z,100797.81
2022-08-03T19:44:11.835Z,100802.03
2022-08-03T19:46:43.265Z,100801.84
2022-08-03T19:49:15.314Z,100810.59
2022-08-03T19:52:01.084Z,100812.69
2022-08-03T19:54:53.929Z,100810.06
2022-08-03T19:57:23.579Z,100814.97
2022-08-03T19:59:52.732Z,100823.00
2022-08-03T20:02:26.653Z,100835.03
2022-08-03T20:04:56.149Z,100828.13
2022-08-03T20:07:23.968Z,100838.41
2022-08-03T20:09:54.701Z,100833.09
2022-08-03T20:12:27.369Z,100837.88
2022-08-03T20:14:57.523Z,100829.38
2022-08-03T20:17:54.435Z,100835.06
2022-08-03T20:20:12.950Z,100836.44
2022-08-03T20:22:45.554Z,100828.13
2022-08-03T20:25:16.229Z,100839.50
2022-08-03T20:28:07.380Z,100832.72
2022-08-03T20:30:38.755Z,100848.75
2022-08-03T20:33:09.954Z,100844.06
2022-08-03T20:35:37.152Z,100830.81
2022-08-03T20:38:04.317Z,100840.50
2022-08-03T20:40:32.272Z,100834.25
2022-08-03T20:42:59.845Z,100838.97
2022-08-03T20:46:00.360Z,100837.25
2022-08-03T20:48:17.538Z,100839.84
2022-08-03T20:50:49.449Z,100833.13
2022-08-03T20:53:17.330Z,100838.06
2022-08-03T20:56:04.269Z,100847.06
2022-08-03T20:58:32.671Z,100850.41
2022-08-03T21:01:01.003Z,100847.16
2022-08-03T21:03:40.625Z,100852.31
2022-08-03T21:06:17.767Z,100844.13
2022-08-03T21:09:00.053Z,100849.59
2022-08-03T21:11:41.590Z,100849.13
2022-08-03T21:13:03.947Z,100760.56
2022-08-03T21:13:04.092Z,100747.13
2022-08-03T21:14:35.414Z,100850.75
2022-08-03T21:17:09.423Z,100856.53
2022-08-03T21:19:52.163Z,100854.19
2022-08-03T21:22:25.789Z,100857.56
2022-08-03T21:24:55.895Z,100857.09
2022-08-03T21:27:29.667Z,100855.97
2022-08-03T21:29:58.317Z,100858.34
2022-08-03T21:32:32.626Z,100859.47
2022-08-03T21:35:01.204Z,100863.38
2022-08-03T21:37:28.972Z,100865.53
2022-08-03T21:39:56.255Z,100868.31
2022-08-03T21:42:27.662Z,100871.00
2022-08-03T21:44:54.758Z,100877.03
2022-08-03T21:47:23.787Z,100880.09
2022-08-03T21:50:08.523Z,100881.66
2022-08-03T21:52:41.035Z,100877.06
2022-08-03T21:55:18.585Z,100881.88
2022-08-03T21:57:52.013Z,100880.50
2022-08-03T22:00:20.478Z,100877.28
2022-08-03T22:02:54.735Z,100882.38
2022-08-03T22:05:42.608Z,100885.25
2022-08-03T22:08:12.714Z,100881.97
2022-08-03T22:10:40.531Z,100888.81
2022-08-03T22:13:08.153Z,100892.16
2022-08-03T22:15:36.002Z,100891.38
2022-08-03T22:18:04.504Z,100898.06
2022-08-03T22:20:38.463Z,100899.00
2022-08-03T22:23:07.032Z,100899.00
2022-08-03T22:25:44.853Z,100897.13
2022-08-03T22:28:13.323Z,100902.28
2022-08-03T22:30:41.579Z,100908.66
2022-08-03T22:33:11.097Z,100899.31
2022-08-03T22:35:47.195Z,100902.97
2022-08-03T22:38:15.923Z,100907.53
2022-08-03T22:40:47.117Z,100907.25
2022-08-03T22:43:14.313Z,100906.22
2022-08-03T22:46:06.818Z,100906.53
2022-08-03T22:48:35.133Z,100912.28
2022-08-03T22:51:05.512Z,100910.72
2022-08-03T22:53:34.403Z,100913.06
2022-08-03T22:56:03.207Z,100923.81
2022-08-03T22:58:30.410Z,100918.34
2022-08-03T23:01:01.565Z,100919.91
2022-08-03T23:04:00.537Z,100922.88
2022-08-03T23:06:19.244Z,100917.13
2022-08-03T23:08:56.664Z,100921.47
2022-08-03T23:11:24.112Z,100922.88
2022-08-03T23:13:53.903Z,100929.00
2022-08-03T23:16:29.299Z,100925.84
2022-08-03T23:18:58.763Z,100933.19
2022-08-03T23:21:52.931Z,100929.31
2022-08-03T23:24:25.261Z,100928.28
2022-08-03T23:26:58.089Z,100924.19
2022-08-03T23:29:26.328Z,100924.09
2022-08-03T23:31:55.027Z,100926.91
2022-08-03T23:34:41.714Z,100928.28
2022-08-03T23:37:09.377Z,100919.81
2022-08-03T23:39:36.740Z,100920.00
2022-08-03T23:42:05.347Z,100927.34
2022-08-03T23:44:34.485Z,100922.00
2022-08-03T23:47:01.674Z,100919.09
2022-08-03T23:49:29.437Z,100929.06
2022-08-03T23:52:02.733Z,100924.91
2022-08-03T23:54:59.966Z,100920.84
2022-08-03T23:57:30.220Z,100923.72
